createdAt,value
2017-04-16T00:00:29.601Z,0
2017-04-16T00:01:10.087Z,0
2017-04-16T00:01:50.580Z,0
2017-04-16T00:02:31.072Z,0
2017-04-16T00:03:11.609Z,0
2017-04-16T00:03:52.091Z,0
2017-04-16T00:04:32.581Z,0
2017-04-16T00:05:13.081Z,0
2017-04-16T00:05:53.565Z,0
2017-04-16T00:06:34.028Z,0
2017-04-16T00:07:14.519Z,0
2017-04-16T00:07:54.997Z,0
2017-04-16T00:08:35.474Z,0
2017-04-16T00:09:15.959Z,0
2017-04-16T00:09:56.513Z,0
2017-04-16T00:10:36.989Z,0
2017-04-16T00:11:17.469Z,0
2017-04-16T00:11:57.962Z,0
2017-04-16T00:12:38.465Z,0
2017-04-16T00:13:18.945Z,0
2017-04-16T00:13:59.455Z,0
2017-04-16T00:14:39.904Z,0
2017-04-16T00:15:20.410Z,0
2017-04-16T00:16:00.860Z,0
2017-04-16T00:16:41.386Z,0
2017-04-16T00:17:21.854Z,0
2017-04-16T00:18:02.463Z,0
2017-04-16T00:18:43.002Z,0
2017-04-16T00:19:23.467Z,0
2017-04-16T00:20:03.948Z,0
2017-04-16T00:20:44.465Z,0
2017-04-16T00:21:24.940Z,0
2017-04-16T00:22:05.444Z,0
2017-04-16T00:22:45.897Z,0
2017-04-16T00:23:26.412Z,0
2017-04-16T00:24:06.920Z,0
2017-04-16T00:24:47.407Z,0
2017-04-16T00:25:27.915Z,0
2017-04-16T00:26:08.414Z,0
2017-04-16T00:26:48.875Z,0
2017-04-16T00:27:29.342Z,0
2017-04-16T00:28:09.883Z,0
2017-04-16T00:28:50.348Z,0
2017-04-16T00:29:30.828Z,0
2017-04-16T00:30:11.319Z,0
2017-04-16T00:30:51.839Z,0
2017-04-16T00:31:32.314Z,0
2017-04-16T00:32:12.773Z,0
2017-04-16T00:32:53.263Z,0
2017-04-16T00:33:33.758Z,0
2017-04-16T00:34:14.244Z,0
2017-04-16T00:34:54.762Z,0
2017-04-16T00:35:35.234Z,0
2017-04-16T00:36:15.722Z,0
2017-04-16T00:36:56.181Z,0
2017-04-16T00:37:36.691Z,0
2017-04-16T00:38:17.169Z,0
2017-04-16T00:38:57.636Z,0
2017-04-16T00:39:38.145Z,0
2017-04-16T00:40:18.653Z,0
2017-04-16T00:40:59.147Z,0
2017-04-16T00:41:39.622Z,0
2017-04-16T00:42:20.155Z,0
2017-04-16T00:43:00.663Z,0
2017-04-16T00:43:41.139Z,0
2017-04-16T00:44:21.658Z,0
2017-04-16T00:45:02.124Z,0
2017-04-16T00:45:42.593Z,0
2017-04-16T00:46:23.087Z,0
2017-04-16T00:47:03.532Z,0
2017-04-16T00:47:43.996Z,0
2017-04-16T00:48:24.461Z,0
2017-04-16T00:49:04.941Z,0
2017-04-16T00:49:45.445Z,0
2017-04-16T00:50:25.948Z,0
2017-04-16T00:51:06.447Z,0
2017-04-16T00:51:46.917Z,0
2017-04-16T00:52:27.388Z,0
2017-04-16T00:53:07.868Z,0
2017-04-16T00:53:48.359Z,0
2017-04-16T00:54:28.841Z,0
2017-04-16T00:55:09.337Z,0
2017-04-16T00:55:49.805Z,0
2017-04-16T00:56:30.316Z,0
2017-04-16T00:57:10.791Z,0
2017-04-16T00:57:51.323Z,0
2017-04-16T00:58:31.781Z,0
2017-04-16T00:59:12.269Z,0
2017-04-16T00:59:52.741Z,0
2017-04-16T01:02:11.094Z,0
2017-04-16T01:02:51.564Z,0
2017-04-16T01:03:32.042Z,0
2017-04-16T01:04:12.492Z,0
2017-04-16T01:04:53.038Z,0
2017-04-16T01:05:33.498Z,0
2017-04-16T01:06:13.979Z,0
2017-04-16T01:06:54.446Z,0
2017-04-16T01:07:34.935Z,0
2017-04-16T01:08:15.431Z,0
2017-04-16T01:08:55.897Z,0
2017-04-16T01:09:36.385Z,0
2017-04-16T01:10:16.894Z,0
2017-04-16T01:10:57.396Z,0
2017-04-16T01:11:37.846Z,0
2017-04-16T01:12:18.350Z,0
2017-04-16T01:12:58.827Z,0
2017-04-16T01:13:39.335Z,0
2017-04-16T01:14:19.811Z,0
2017-04-16T01:15:00.256Z,0
2017-04-16T01:15:40.793Z,0
2017-04-16T01:18:09.196Z,0
2017-04-16T01:18:49.671Z,0
2017-04-16T01:19:30.156Z,0
2017-04-16T01:20:10.629Z,0
2017-04-16T01:20:51.110Z,0
2017-04-16T01:21:31.557Z,0
2017-04-16T01:22:12.088Z,0
2017-04-16T01:22:52.550Z,0
2017-04-16T01:23:33.066Z,0
2017-04-16T01:24:13.513Z,0
2017-04-16T01:24:53.998Z,0
2017-04-16T01:25:34.479Z,0
2017-04-16T01:26:14.997Z,0
2017-04-16T01:26:55.466Z,0
2017-04-16T01:27:35.956Z,0
2017-04-16T01:28:16.466Z,0
2017-04-16T01:28:56.935Z,0
2017-04-16T01:29:37.434Z,0
2017-04-16T01:30:17.902Z,0
2017-04-16T01:30:58.389Z,0
2017-04-16T01:31:38.850Z,0
2017-04-16T01:32:19.381Z,0
2017-04-16T01:32:59.877Z,0
2017-04-16T01:33:40.319Z,0
2017-04-16T01:34:20.809Z,0
2017-04-16T01:35:01.289Z,0
2017-04-16T01:35:41.814Z,0
2017-04-16T01:36:22.300Z,0
2017-04-16T01:37:02.784Z,0
2017-04-16T01:37:43.259Z,0
2017-04-16T01:38:23.716Z,0
2017-04-16T01:39:04.214Z,0
2017-04-16T01:39:44.688Z,0
2017-04-16T01:40:25.167Z,0
2017-04-16T01:41:05.674Z,0
2017-04-16T01:41:46.119Z,0
2017-04-16T01:42:26.608Z,0
2017-04-16T01:43:07.102Z,0
2017-04-16T01:43:47.599Z,0
2017-04-16T01:44:28.067Z,0
2017-04-16T01:45:08.542Z,0
2017-04-16T01:45:48.983Z,0
2017-04-16T01:46:29.480Z,0
2017-04-16T01:47:09.966Z,0
2017-04-16T01:47:50.453Z,0
2017-04-16T01:48:30.941Z,0
2017-04-16T01:49:11.469Z,0
2017-04-16T01:49:51.934Z,0
2017-04-16T01:50:32.385Z,0
2017-04-16T01:51:12.879Z,0
2017-04-16T01:51:53.349Z,0
2017-04-16T01:52:33.820Z,0
2017-04-16T01:53:14.280Z,0
2017-04-16T01:53:54.754Z,0
2017-04-16T01:54:35.218Z,0
2017-04-16T01:55:15.690Z,0
2017-04-16T01:55:56.165Z,0
2017-04-16T01:56:36.675Z,0
2017-04-16T01:57:17.174Z,0
2017-04-16T01:57:57.644Z,0
2017-04-16T01:58:38.136Z,0
2017-04-16T01:59:18.620Z,0
2017-04-16T01:59:59.127Z,0
2017-04-16T02:00:39.592Z,0
2017-04-16T02:01:20.062Z,0
2017-04-16T02:02:00.566Z,0
2017-04-16T02:02:41.058Z,0
2017-04-16T02:03:21.556Z,0
2017-04-16T02:04:02.020Z,0
2017-04-16T02:04:42.546Z,0
2017-04-16T02:05:23.061Z,0
2017-04-16T02:06:03.550Z,0
2017-04-16T02:06:44.011Z,0
2017-04-16T02:07:24.497Z,0
2017-04-16T02:08:04.963Z,0
2017-04-16T02:08:45.484Z,0
2017-04-16T02:09:25.976Z,0
2017-04-16T02:10:06.561Z,0
2017-04-16T02:10:47.030Z,0
2017-04-16T02:11:27.528Z,0
2017-04-16T02:12:07.992Z,0
2017-04-16T02:12:48.484Z,0
2017-04-16T02:13:28.960Z,0
2017-04-16T02:14:09.452Z,0
2017-04-16T02:14:49.929Z,0
2017-04-16T02:15:30.435Z,0
2017-04-16T02:16:10.919Z,0
2017-04-16T02:16:51.418Z,0
2017-04-16T02:17:31.905Z,0
2017-04-16T02:18:12.378Z,0
2017-04-16T02:18:52.887Z,0
2017-04-16T02:19:33.376Z,0
2017-04-16T02:20:13.858Z,0
2017-04-16T02:20:54.355Z,0
2017-04-16T02:21:34.830Z,0
2017-04-16T02:22:15.295Z,0
2017-04-16T02:22:55.801Z,0
2017-04-16T02:25:29.351Z,0
2017-04-16T02:26:09.748Z,0
2017-04-16T02:26:50.243Z,0
2017-04-16T02:27:30.703Z,0
2017-04-16T02:28:11.188Z,0
2017-04-16T02:28:51.681Z,0
2017-04-16T02:29:32.136Z,0
2017-04-16T02:30:12.762Z,0
2017-04-16T02:30:53.288Z,0
2017-04-16T02:31:33.750Z,0
2017-04-16T02:32:14.195Z,0
2017-04-16T02:32:54.700Z,0
2017-04-16T02:33:35.171Z,0
2017-04-16T02:34:15.630Z,0
2017-04-16T02:34:56.077Z,0
2017-04-16T02:35:36.623Z,0
2017-04-16T02:36:17.115Z,0
2017-04-16T02:36:57.537Z,0
2017-04-16T02:37:38.017Z,0
2017-04-16T02:38:18.556Z,0
2017-04-16T02:38:59.055Z,0
2017-04-16T02:39:39.489Z,0
2017-04-16T02:40:19.986Z,0
2017-04-16T02:41:00.464Z,0
2017-04-16T02:41:40.929Z,0
2017-04-16T02:42:21.450Z,0
2017-04-16T02:43:01.910Z,0
2017-04-16T02:43:42.360Z,0
2017-04-16T02:44:22.965Z,0
2017-04-16T02:45:03.416Z,0
2017-04-16T02:45:43.919Z,0
2017-04-16T02:46:24.400Z,0
2017-04-16T02:47:04.897Z,0
2017-04-16T02:47:45.358Z,0
2017-04-16T02:48:25.832Z,0
2017-04-16T02:49:06.318Z,0
2017-04-16T02:49:46.829Z,0
2017-04-16T02:50:27.295Z,0
2017-04-16T02:51:07.757Z,0
2017-04-16T02:51:48.203Z,0
2017-04-16T02:52:28.712Z,0
2017-04-16T02:53:09.185Z,0
2017-04-16T02:53:49.688Z,0
2017-04-16T02:54:30.147Z,0
2017-04-16T02:55:10.625Z,0
2017-04-16T02:55:51.097Z,0
2017-04-16T02:56:31.584Z,0
2017-04-16T02:57:12.092Z,0
2017-04-16T02:57:52.559Z,0
2017-04-16T02:58:33.040Z,0
2017-04-16T02:59:13.536Z,0
2017-04-16T02:59:53.990Z,0
2017-04-16T03:00:34.471Z,0
2017-04-16T03:01:14.960Z,0
2017-04-16T03:01:55.425Z,0
2017-04-16T03:02:35.903Z,0
2017-04-16T03:03:16.385Z,0
2017-04-16T03:03:56.948Z,0
2017-04-16T03:04:37.459Z,0
2017-04-16T03:05:17.930Z,0
2017-04-16T03:05:58.399Z,0
2017-04-16T03:06:38.875Z,0
2017-04-16T03:07:19.327Z,0
2017-04-16T03:07:59.832Z,0
2017-04-16T03:08:40.290Z,0
2017-04-16T03:09:20.789Z,0
2017-04-16T03:10:01.268Z,0
2017-04-16T03:10:41.879Z,0
2017-04-16T03:11:22.352Z,0
2017-04-16T03:12:02.793Z,0
2017-04-16T03:12:43.299Z,0
2017-04-16T03:13:23.755Z,0
2017-04-16T03:14:04.250Z,0
2017-04-16T03:14:44.694Z,0
2017-04-16T03:15:25.207Z,0
2017-04-16T03:16:05.689Z,0
2017-04-16T03:16:46.170Z,0
2017-04-16T03:17:26.704Z,0
2017-04-16T03:18:07.177Z,0
2017-04-16T03:18:47.683Z,0
2017-04-16T03:19:28.141Z,0
2017-04-16T03:20:08.599Z,0
2017-04-16T03:20:49.111Z,0
2017-04-16T03:21:29.568Z,0
2017-04-16T03:22:10.074Z,0
2017-04-16T03:22:50.613Z,0
2017-04-16T03:23:31.127Z,0
2017-04-16T03:24:11.663Z,0
2017-04-16T03:24:52.126Z,0
2017-04-16T03:25:32.596Z,0
2017-04-16T03:26:13.102Z,0
2017-04-16T03:26:53.610Z,0
2017-04-16T03:27:34.062Z,0
2017-04-16T03:28:14.605Z,0
2017-04-16T03:28:55.043Z,0
2017-04-16T03:29:35.524Z,0
2017-04-16T03:30:16.008Z,0
2017-04-16T03:30:56.510Z,0
2017-04-16T03:31:37.026Z,0
2017-04-16T03:32:17.434Z,0
2017-04-16T03:32:57.956Z,0
2017-04-16T03:33:38.429Z,0
2017-04-16T03:34:18.929Z,0
2017-04-16T03:34:59.370Z,0
2017-04-16T03:35:39.837Z,0
2017-04-16T03:36:20.318Z,0
2017-04-16T03:37:00.777Z,0
2017-04-16T03:37:41.246Z,0
2017-04-16T03:38:21.784Z,0
2017-04-16T03:39:02.225Z,0
2017-04-16T03:39:42.692Z,0
2017-04-16T03:40:23.227Z,0
2017-04-16T03:41:03.692Z,0
2017-04-16T03:41:44.190Z,0
2017-04-16T03:42:24.664Z,0
2017-04-16T03:43:05.151Z,0
2017-04-16T03:43:45.604Z,0
2017-04-16T03:44:26.152Z,0
2017-04-16T03:45:06.681Z,0
2017-04-16T03:45:47.161Z,0
2017-04-16T03:46:27.634Z,0
2017-04-16T03:47:08.128Z,0
2017-04-16T03:47:48.600Z,0
2017-04-16T03:48:29.039Z,0
2017-04-16T03:49:09.561Z,0
2017-04-16T03:49:50.024Z,0
2017-04-16T03:50:30.517Z,0
2017-04-16T03:51:11.014Z,0
2017-04-16T03:51:51.533Z,0
2017-04-16T03:52:32.044Z,0
2017-04-16T03:53:12.507Z,0
2017-04-16T03:53:53.000Z,0
2017-04-16T03:54:33.467Z,0
2017-04-16T03:55:13.937Z,0
2017-04-16T03:55:54.452Z,0
2017-04-16T03:56:34.942Z,0
2017-04-16T03:57:15.408Z,0
2017-04-16T03:57:55.886Z,0
2017-04-16T03:58:36.331Z,0
2017-04-16T03:59:16.836Z,0
2017-04-16T03:59:57.299Z,0
2017-04-16T04:00:37.806Z,0
2017-04-16T04:01:18.250Z,0
2017-04-16T04:01:58.740Z,0
2017-04-16T04:02:39.269Z,0
2017-04-16T04:03:19.736Z,0
2017-04-16T04:04:00.227Z,0
2017-04-16T04:04:40.705Z,0
2017-04-16T04:05:21.182Z,0
2017-04-16T04:06:01.738Z,0
2017-04-16T04:06:42.229Z,0
2017-04-16T04:07:22.710Z,0
2017-04-16T04:08:03.165Z,0
2017-04-16T04:08:43.659Z,0
2017-04-16T04:09:24.118Z,0
2017-04-16T04:10:04.610Z,0
2017-04-16T04:10:45.072Z,0
2017-04-16T04:11:25.540Z,0
2017-04-16T04:12:06.020Z,0
2017-04-16T04:12:46.480Z,0
2017-04-16T04:13:27.025Z,0
2017-04-16T04:14:07.534Z,0
2017-04-16T04:14:48.010Z,0
2017-04-16T04:15:28.502Z,0
2017-04-16T04:16:08.982Z,0
2017-04-16T04:16:49.474Z,0
2017-04-16T04:17:30.026Z,0
2017-04-16T04:18:10.519Z,5
2017-04-16T04:18:50.992Z,5
2017-04-16T04:19:31.502Z,5
2017-04-16T04:20:12.021Z,5
2017-04-16T04:20:52.506Z,5
2017-04-16T04:21:32.968Z,5
2017-04-16T04:22:13.442Z,5
2017-04-16T04:22:53.908Z,5
2017-04-16T04:23:34.409Z,5
2017-04-16T04:24:14.881Z,5
2017-04-16T04:24:55.346Z,5
2017-04-16T04:25:35.859Z,5
2017-04-16T04:26:16.310Z,5
2017-04-16T04:26:56.853Z,5
2017-04-16T04:27:37.332Z,10
2017-04-16T04:28:17.829Z,10
2017-04-16T04:28:58.288Z,10
2017-04-16T04:29:38.782Z,10
2017-04-16T04:30:19.263Z,10
2017-04-16T04:30:59.719Z,10
2017-04-16T04:31:40.199Z,10
2017-04-16T04:32:20.658Z,15
2017-04-16T04:33:01.223Z,15
2017-04-16T04:33:41.692Z,15
2017-04-16T04:34:22.147Z,15
2017-04-16T04:35:02.617Z,20
2017-04-16T04:35:43.090Z,20
2017-04-16T04:36:23.586Z,20
2017-04-16T04:37:04.058Z,20
2017-04-16T04:37:44.551Z,20
2017-04-16T04:38:25.032Z,20
2017-04-16T04:39:05.531Z,20
2017-04-16T04:39:46.011Z,20
2017-04-16T04:40:26.476Z,20
2017-04-16T04:41:06.986Z,20
2017-04-16T04:41:47.489Z,25
2017-04-16T04:42:28.010Z,25
2017-04-16T04:43:08.538Z,25
2017-04-16T04:43:49.007Z,25
2017-04-16T04:44:29.452Z,20
2017-04-16T04:45:09.977Z,20
2017-04-16T04:45:50.422Z,20
2017-04-16T04:46:30.930Z,20
2017-04-16T04:47:11.428Z,20
2017-04-16T04:47:51.894Z,20
2017-04-16T04:48:32.366Z,20
2017-04-16T04:49:12.837Z,20
2017-04-16T04:49:53.292Z,20
2017-04-16T04:50:33.802Z,20
2017-04-16T04:51:14.282Z,20
2017-04-16T04:51:54.752Z,20
2017-04-16T04:52:35.266Z,20
2017-04-16T04:53:15.745Z,20
2017-04-16T04:53:56.175Z,25
2017-04-16T04:54:36.696Z,30
2017-04-16T04:55:17.193Z,35
2017-04-16T04:55:57.700Z,40
2017-04-16T04:56:38.177Z,45
2017-04-16T04:57:18.656Z,45
2017-04-16T04:57:59.141Z,45
2017-04-16T04:58:39.654Z,45
2017-04-16T04:59:20.109Z,45
2017-04-16T05:00:00.580Z,45
2017-04-16T05:00:41.057Z,45
2017-04-16T05:01:21.551Z,40
2017-04-16T05:02:02.022Z,40
2017-04-16T05:02:42.468Z,40
2017-04-16T05:03:22.966Z,40
2017-04-16T05:04:03.438Z,45
2017-04-16T05:04:43.919Z,45
2017-04-16T05:05:24.364Z,45
2017-04-16T05:06:04.847Z,50
2017-04-16T05:06:45.326Z,50
2017-04-16T05:07:25.807Z,50
2017-04-16T05:08:06.300Z,50
2017-04-16T05:08:46.781Z,55
2017-04-16T05:09:27.285Z,55
2017-04-16T05:10:07.906Z,55
2017-04-16T05:10:48.414Z,55
2017-04-16T05:11:28.897Z,55
2017-04-16T05:12:09.360Z,50
2017-04-16T05:12:49.880Z,45
2017-04-16T05:13:30.344Z,40
2017-04-16T05:14:10.817Z,40
2017-04-16T05:14:52.185Z,35
2017-04-16T05:15:32.692Z,30
2017-04-16T05:16:13.156Z,30
2017-04-16T05:16:53.634Z,35
2017-04-16T05:17:34.118Z,40
2017-04-16T05:18:14.594Z,45
2017-04-16T05:18:55.120Z,50
2017-04-16T05:19:35.565Z,60
2017-04-16T05:20:16.080Z,75
2017-04-16T05:20:56.572Z,75
2017-04-16T05:21:37.070Z,75
2017-04-16T05:22:17.543Z,80
2017-04-16T05:22:58.036Z,85
2017-04-16T05:23:38.522Z,85
2017-04-16T05:24:19.033Z,85
2017-04-16T05:24:59.501Z,85
2017-04-16T05:25:39.984Z,85
2017-04-16T05:26:20.451Z,85
2017-04-16T05:27:00.961Z,90
2017-04-16T05:27:41.454Z,100
2017-04-16T05:28:21.964Z,100
2017-04-16T05:29:02.440Z,110
2017-04-16T05:29:42.900Z,110
2017-04-16T05:30:23.391Z,100
2017-04-16T05:31:03.863Z,100
2017-04-16T05:31:44.327Z,105
2017-04-16T05:32:24.826Z,115
2017-04-16T05:33:05.282Z,120
2017-04-16T05:33:45.777Z,120
2017-04-16T05:34:26.257Z,120
2017-04-16T05:35:06.758Z,125
2017-04-16T05:35:47.235Z,125
2017-04-16T05:36:27.727Z,110
2017-04-16T05:37:08.218Z,105
2017-04-16T05:37:48.673Z,110
2017-04-16T05:38:29.156Z,120
2017-04-16T05:39:09.612Z,115
2017-04-16T05:39:50.102Z,110
2017-04-16T05:40:30.569Z,110
2017-04-16T05:41:11.024Z,110
2017-04-16T05:41:51.530Z,105
2017-04-16T05:42:32.057Z,105
2017-04-16T05:43:12.549Z,105
2017-04-16T05:43:53.008Z,105
2017-04-16T05:44:33.521Z,105
2017-04-16T05:45:13.982Z,105
2017-04-16T05:45:54.432Z,110
2017-04-16T05:46:34.904Z,115
2017-04-16T05:47:15.391Z,115
2017-04-16T05:47:55.888Z,115
2017-04-16T05:48:36.330Z,115
2017-04-16T05:49:16.838Z,120
2017-04-16T05:49:57.325Z,130
2017-04-16T05:50:37.853Z,135
2017-04-16T05:51:18.331Z,130
2017-04-16T05:51:58.805Z,120
2017-04-16T05:52:39.268Z,130
2017-04-16T05:53:19.751Z,130
2017-04-16T05:54:00.241Z,135
2017-04-16T05:54:40.690Z,135
2017-04-16T05:55:21.194Z,135
2017-04-16T05:56:01.638Z,130
2017-04-16T05:56:42.153Z,135
2017-04-16T05:57:22.635Z,135
2017-04-16T05:58:03.134Z,140
2017-04-16T05:58:43.580Z,145
2017-04-16T05:59:24.082Z,140
2017-04-16T06:00:04.532Z,135
2017-04-16T06:00:44.997Z,135
2017-04-16T06:01:25.484Z,140
2017-04-16T06:02:05.971Z,135
2017-04-16T06:02:46.451Z,130
2017-04-16T06:03:26.929Z,135
2017-04-16T06:04:07.416Z,140
2017-04-16T06:04:47.966Z,140
2017-04-16T06:05:28.416Z,140
2017-04-16T06:06:08.891Z,130
2017-04-16T06:06:49.365Z,130
2017-04-16T06:07:29.843Z,140
2017-04-16T06:08:10.350Z,145
2017-04-16T06:08:50.823Z,145
2017-04-16T06:09:31.292Z,145
2017-04-16T06:10:11.806Z,145
2017-04-16T06:10:52.301Z,130
2017-04-16T06:11:32.782Z,135
2017-04-16T06:12:13.310Z,140
2017-04-16T06:12:53.806Z,140
2017-04-16T06:13:34.307Z,140
2017-04-16T06:14:14.790Z,135
2017-04-16T06:14:55.254Z,140
2017-04-16T06:15:35.741Z,135
2017-04-16T06:16:16.238Z,130
2017-04-16T06:16:56.753Z,125
2017-04-16T06:17:37.216Z,130
2017-04-16T06:18:17.678Z,135
2017-04-16T06:18:58.169Z,140
2017-04-16T06:19:38.640Z,145
2017-04-16T06:20:19.133Z,155
2017-04-16T06:20:59.635Z,165
2017-04-16T06:21:40.119Z,155
2017-04-16T06:22:20.599Z,160
2017-04-16T06:23:01.054Z,165
2017-04-16T06:23:41.558Z,165
2017-04-16T06:24:22.059Z,165
2017-04-16T06:25:02.524Z,175
2017-04-16T06:25:43.005Z,180
2017-04-16T06:26:23.488Z,185
2017-04-16T06:27:03.987Z,185
2017-04-16T06:27:44.496Z,190
2017-04-16T06:28:25.020Z,190
2017-04-16T06:29:05.509Z,185
2017-04-16T06:29:45.998Z,170
2017-04-16T06:30:26.484Z,165
2017-04-16T06:31:06.977Z,190
2017-04-16T06:31:47.464Z,200
2017-04-16T06:32:27.953Z,180
2017-04-16T06:33:08.450Z,150
2017-04-16T06:33:48.937Z,155
2017-04-16T06:34:29.399Z,165
2017-04-16T06:35:09.888Z,175
2017-04-16T06:35:50.354Z,180
2017-04-16T06:36:30.842Z,190
2017-04-16T06:37:11.388Z,195
2017-04-16T06:37:51.913Z,185
2017-04-16T06:38:32.391Z,180
2017-04-16T06:39:12.862Z,200
2017-04-16T06:39:53.352Z,210
2017-04-16T06:40:33.873Z,215
2017-04-16T06:41:14.319Z,235
2017-04-16T06:41:54.781Z,230
2017-04-16T06:42:35.265Z,200
2017-04-16T06:43:15.755Z,190
2017-04-16T06:43:56.228Z,190
2017-04-16T06:44:36.766Z,200
2017-04-16T06:45:17.243Z,200
2017-04-16T06:45:57.694Z,195
2017-04-16T06:46:38.209Z,200
2017-04-16T06:47:18.691Z,205
2017-04-16T06:47:59.184Z,220
2017-04-16T06:48:39.684Z,220
2017-04-16T06:49:20.172Z,210
2017-04-16T06:50:00.640Z,215
2017-04-16T06:50:41.094Z,215
2017-04-16T06:51:21.569Z,205
2017-04-16T06:52:02.164Z,205
2017-04-16T06:52:42.648Z,215
2017-04-16T06:53:23.108Z,225
2017-04-16T06:54:03.609Z,215
2017-04-16T06:54:44.103Z,210
2017-04-16T06:55:24.568Z,215
2017-04-16T06:56:05.035Z,225
2017-04-16T06:56:45.496Z,220
2017-04-16T06:57:25.983Z,210
2017-04-16T06:58:06.435Z,205
2017-04-16T06:58:46.935Z,200
2017-04-16T06:59:27.412Z,190
2017-04-16T07:00:07.911Z,180
2017-04-16T07:00:48.399Z,170
2017-04-16T07:01:28.864Z,165
2017-04-16T07:02:09.353Z,165
2017-04-16T07:02:49.826Z,165
2017-04-16T07:03:30.313Z,175
2017-04-16T07:04:10.830Z,190
2017-04-16T07:04:51.294Z,205
2017-04-16T07:05:31.816Z,220
2017-04-16T07:06:12.271Z,230
2017-04-16T07:06:52.749Z,220
2017-04-16T07:07:33.268Z,200
2017-04-16T07:08:13.718Z,190
2017-04-16T07:08:54.220Z,195
2017-04-16T07:09:34.672Z,205
2017-04-16T07:10:15.129Z,215
2017-04-16T07:10:55.659Z,225
2017-04-16T07:11:36.136Z,230
2017-04-16T07:12:16.622Z,235
2017-04-16T07:12:57.071Z,235
2017-04-16T07:13:37.536Z,235
2017-04-16T07:14:18.042Z,235
2017-04-16T07:14:58.540Z,245
2017-04-16T07:15:39.020Z,265
2017-04-16T07:16:19.515Z,275
2017-04-16T07:16:59.995Z,285
2017-04-16T07:17:40.476Z,280
2017-04-16T07:18:20.965Z,280
2017-04-16T07:19:01.468Z,280
2017-04-16T07:19:41.949Z,285
2017-04-16T07:20:22.452Z,290
2017-04-16T07:21:02.985Z,290
2017-04-16T07:21:43.476Z,285
2017-04-16T07:22:24.031Z,290
2017-04-16T07:23:04.490Z,290
2017-04-16T07:23:44.979Z,290
2017-04-16T07:24:25.438Z,290
2017-04-16T07:25:05.931Z,285
2017-04-16T07:25:53.097Z,295
2017-04-16T07:26:33.600Z,290
2017-04-16T07:27:14.109Z,290
2017-04-16T07:27:54.585Z,290
2017-04-16T07:28:35.129Z,285
2017-04-16T07:29:15.611Z,280
2017-04-16T07:29:56.091Z,260
2017-04-16T07:30:36.608Z,245
2017-04-16T07:31:17.084Z,240
2017-04-16T07:31:57.603Z,240
2017-04-16T07:34:36.273Z,275
2017-04-16T07:35:16.879Z,280
2017-04-16T07:35:57.428Z,270
2017-04-16T07:36:37.880Z,260
2017-04-16T07:37:18.367Z,260
2017-04-16T07:37:58.824Z,265
2017-04-16T07:38:39.349Z,265
2017-04-16T07:39:19.851Z,260
2017-04-16T07:40:00.315Z,260
2017-04-16T07:40:40.852Z,270
2017-04-16T07:41:21.302Z,285
2017-04-16T07:42:01.841Z,300
2017-04-16T07:42:42.305Z,310
2017-04-16T07:43:22.761Z,315
2017-04-16T07:44:03.232Z,310
2017-04-16T07:44:43.715Z,305
2017-04-16T07:45:24.185Z,310
2017-04-16T07:46:04.685Z,310
2017-04-16T07:46:45.163Z,310
2017-04-16T07:47:25.629Z,310
2017-04-16T07:48:06.122Z,310
2017-04-16T07:48:46.580Z,315
2017-04-16T07:49:27.104Z,320
2017-04-16T07:50:07.620Z,325
2017-04-16T07:50:48.058Z,320
2017-04-16T07:51:28.535Z,320
2017-04-16T07:52:09.020Z,320
2017-04-16T07:52:49.499Z,330
2017-04-16T07:53:29.999Z,335
2017-04-16T07:54:10.477Z,340
2017-04-16T07:54:50.963Z,340
2017-04-16T07:55:31.450Z,330
2017-04-16T07:56:11.989Z,325
2017-04-16T07:56:52.477Z,320
2017-04-16T07:57:32.924Z,315
2017-04-16T07:58:13.389Z,325
2017-04-16T07:58:53.858Z,330
2017-04-16T07:59:34.324Z,345
2017-04-16T08:00:14.821Z,345
2017-04-16T08:00:55.293Z,350
2017-04-16T08:01:38.283Z,350
2017-04-16T08:02:25.511Z,340
2017-04-16T08:03:06.005Z,325
2017-04-16T08:03:46.497Z,310
2017-04-16T08:04:26.960Z,290
2017-04-16T08:05:07.454Z,280
2017-04-16T08:05:47.942Z,265
2017-04-16T08:06:28.481Z,245
2017-04-16T08:07:08.957Z,240
2017-04-16T08:07:49.467Z,240
2017-04-16T08:08:29.938Z,250
2017-04-16T08:09:10.441Z,260
2017-04-16T08:09:50.908Z,270
2017-04-16T08:10:31.401Z,275
2017-04-16T08:11:11.907Z,285
2017-04-16T08:11:52.412Z,285
2017-04-16T08:12:32.884Z,290
2017-04-16T08:13:13.391Z,285
2017-04-16T08:13:53.859Z,285
2017-04-16T08:14:34.331Z,285
2017-04-16T08:15:14.873Z,285
2017-04-16T08:15:55.330Z,285
2017-04-16T08:16:35.826Z,285
2017-04-16T08:17:16.284Z,285
2017-04-16T08:17:56.758Z,300
2017-04-16T08:18:37.366Z,325
2017-04-16T08:19:17.859Z,345
2017-04-16T08:19:58.366Z,355
2017-04-16T08:20:38.839Z,355
2017-04-16T08:21:19.324Z,355
2017-04-16T08:21:59.808Z,355
2017-04-16T08:22:40.280Z,345
2017-04-16T08:23:20.732Z,340
2017-04-16T08:24:01.247Z,345
2017-04-16T08:24:41.730Z,360
2017-04-16T08:25:22.257Z,375
2017-04-16T08:26:02.798Z,380
2017-04-16T08:26:43.272Z,380
2017-04-16T08:27:23.793Z,380
2017-04-16T08:28:04.253Z,380
2017-04-16T08:28:44.715Z,380
2017-04-16T08:29:25.170Z,370
2017-04-16T08:30:05.687Z,370
2017-04-16T08:30:46.157Z,375
2017-04-16T08:31:26.626Z,380
2017-04-16T08:32:07.146Z,385
2017-04-16T08:32:47.597Z,390
2017-04-16T08:33:28.068Z,400
2017-04-16T08:34:08.550Z,400
2017-04-16T08:34:49.049Z,410
2017-04-16T08:35:29.530Z,425
2017-04-16T08:36:10.091Z,420
2017-04-16T08:36:50.572Z,420
2017-04-16T08:37:31.053Z,430
2017-04-16T08:38:11.588Z,425
2017-04-16T08:38:52.075Z,415
2017-04-16T08:39:32.567Z,420
2017-04-16T08:40:13.078Z,420
2017-04-16T08:40:53.576Z,420
2017-04-16T08:41:34.060Z,425
2017-04-16T08:42:14.559Z,435
2017-04-16T08:42:55.051Z,430
2017-04-16T08:43:35.505Z,415
2017-04-16T08:44:15.982Z,400
2017-04-16T08:44:56.442Z,395
2017-04-16T08:45:36.970Z,395
2017-04-16T08:46:17.546Z,395
2017-04-16T08:46:57.949Z,420
2017-04-16T08:47:38.483Z,420
2017-04-16T08:48:18.936Z,395
2017-04-16T08:48:59.431Z,355
2017-04-16T08:49:39.879Z,310
2017-04-16T08:50:20.384Z,290
2017-04-16T08:51:00.877Z,280
2017-04-16T08:51:41.335Z,275
2017-04-16T08:52:21.818Z,255
2017-04-16T08:53:02.357Z,250
2017-04-16T08:53:42.856Z,265
2017-04-16T08:54:23.419Z,270
2017-04-16T08:55:03.895Z,295
2017-04-16T08:55:44.372Z,320
2017-04-16T08:56:24.864Z,345
2017-04-16T08:57:05.320Z,365
2017-04-16T08:57:45.838Z,365
2017-04-16T08:58:26.310Z,355
2017-04-16T08:59:06.843Z,380
2017-04-16T08:59:47.469Z,410
2017-04-16T09:00:27.949Z,455
2017-04-16T09:01:08.438Z,490
2017-04-16T09:01:48.922Z,510
2017-04-16T09:02:29.439Z,470
2017-04-16T09:03:09.965Z,440
2017-04-16T09:03:50.463Z,430
2017-04-16T09:04:30.964Z,420
2017-04-16T09:05:11.420Z,425
2017-04-16T09:05:51.963Z,435
2017-04-16T09:06:32.438Z,450
2017-04-16T09:07:12.920Z,440
2017-04-16T09:07:53.374Z,430
2017-04-16T09:08:33.845Z,420
2017-04-16T09:09:14.353Z,410
2017-04-16T09:09:54.784Z,400
2017-04-16T09:10:35.257Z,385
2017-04-16T09:11:15.741Z,355
2017-04-16T09:11:56.254Z,335
2017-04-16T09:12:36.717Z,320
2017-04-16T09:13:24.122Z,315
2017-04-16T09:14:04.588Z,320
2017-04-16T09:14:45.073Z,315
2017-04-16T09:15:25.563Z,320
2017-04-16T09:16:06.043Z,330
2017-04-16T09:16:46.535Z,345
2017-04-16T09:17:27.065Z,370
2017-04-16T09:18:07.542Z,400
2017-04-16T09:18:48.073Z,415
2017-04-16T09:19:28.548Z,420
2017-04-16T09:20:09.013Z,420
2017-04-16T09:22:22.257Z,360
2017-04-16T09:23:02.690Z,375
2017-04-16T09:23:43.182Z,375
2017-04-16T09:24:23.637Z,380
2017-04-16T09:25:04.135Z,385
2017-04-16T09:25:44.588Z,395
2017-04-16T09:26:25.075Z,405
2017-04-16T09:27:05.580Z,405
2017-04-16T09:27:46.036Z,415
2017-04-16T09:30:04.345Z,520
2017-04-16T09:30:44.828Z,510
2017-04-16T09:31:25.360Z,465
2017-04-16T09:32:05.834Z,445
2017-04-16T09:32:46.326Z,415
2017-04-16T09:33:26.804Z,405
2017-04-16T09:34:08.249Z,395
2017-04-16T09:34:48.757Z,375
2017-04-16T09:35:29.202Z,375
2017-04-16T09:36:09.695Z,400
2017-04-16T09:36:50.173Z,425
2017-04-16T09:37:30.691Z,465
2017-04-16T09:38:11.203Z,480
2017-04-16T09:38:51.711Z,500
2017-04-16T09:39:32.268Z,485
2017-04-16T09:40:12.777Z,465
2017-04-16T09:40:53.283Z,440
2017-04-16T09:41:33.740Z,430
2017-04-16T09:42:14.204Z,420
2017-04-16T09:42:57.262Z,395
2017-04-16T09:43:37.815Z,380
2017-04-16T09:44:18.303Z,320
2017-04-16T09:44:58.824Z,300
2017-04-16T09:45:39.346Z,255
2017-04-16T09:46:19.828Z,235
2017-04-16T09:47:00.313Z,210
2017-04-16T09:47:40.802Z,225
2017-04-16T09:48:21.296Z,215